Main page
Satellite images 10-day forecastsClimateMarine weather Cyclones Lightning AirportsFAQ Newsletter About
Weather : Europe Africa North America South America Asia Australia-Oceania Others
Languages Contact

London-Heathrow, England

London Heathrow Airport

latitude: 51-29N, longitude: 000-27W, elevation: 24 m


METAR: EGLL 271620Z 25007KT 210V290 CAVOK 12/M03 Q1011 NOSIG
TAF: EGLL 271101Z 2712/2818 26006KT 9999 SCT045

Time: 18:00 (17:00 UTC)

Current weather observation

The report was made 40 minutes ago, at 16:20 UTC
Wind 7 kt from the West/Southwest, varying between South/Southwest and West/Northwest
Temperature 12°C
Humidity 35%
Pressure 1011 hPa
Visibility 10 km or more
no clouds below 1500 m and no cumulonimbus

Change units

Forecast

The report was made 5 hours and 59 minutes ago, at 11:01 UTC
Forecast valid from 27 at 12 UTC to 28 at 18 UTC
Wind 6 kt from the West
Visibility 10 km or more
Scattered clouds at a height of 4500 ft
The information on this site is subject to a disclaimer
Weather : Europe Africa North America South America Asia Australia-Oceania Others
Satellite images 10-day forecastsClimateMarine weather Cyclones Lightning AirportsFAQ Languages Contact Newsletter About